sensor_id;sensor_type;location;lat;lon;timestamp;pressure;altitude;pressure_sealevel;temperature;humidity
49377;BME280;35253;34.688;33.040;2022-07-29T00:00:44;100113.22;;;30.29;72.36
49377;BME280;35253;34.688;33.040;2022-07-29T00:03:13;100113.53;;;30.39;71.70
49377;BME280;35253;34.688;33.040;2022-07-29T00:05:42;100107.66;;;30.65;69.48
49377;BME280;35253;34.688;33.040;2022-07-29T00:08:08;100119.31;;;30.91;67.27
49377;BME280;35253;34.688;33.040;2022-07-29T00:10:35;100110.34;;;30.95;66.78
49377;BME280;35253;34.688;33.040;2022-07-29T00:13:01;100116.03;;;31.00;65.89
49377;BME280;35253;34.688;33.040;2022-07-29T00:15:27;100115.31;;;31.05;62.30
49377;BME280;35253;34.688;33.040;2022-07-29T00:17:53;100121.59;;;30.94;62.72
49377;BME280;35253;34.688;33.040;2022-07-29T00:20:19;100112.56;;;31.05;61.61
49377;BME280;35253;34.688;33.040;2022-07-29T00:22:45;100122.50;;;31.06;60.73
49377;BME280;35253;34.688;33.040;2022-07-29T00:25:12;100126.31;;;31.05;59.39
49377;BME280;35253;34.688;33.040;2022-07-29T00:27:38;100126.66;;;30.97;59.11
49377;BME280;35253;34.688;33.040;2022-07-29T00:30:05;100127.09;;;30.94;58.81
49377;BME280;35253;34.688;33.040;2022-07-29T00:32:31;100128.19;;;30.93;58.53
49377;BME280;35253;34.688;33.040;2022-07-29T00:34:56;100122.91;;;30.91;59.26
49377;BME280;35253;34.688;33.040;2022-07-29T00:37:40;100124.09;;;30.83;59.62
49377;BME280;35253;34.688;33.040;2022-07-29T00:40:07;100119.66;;;30.82;60.33
49377;BME280;35253;34.688;33.040;2022-07-29T00:42:46;100121.69;;;30.75;61.25
49377;BME280;35253;34.688;33.040;2022-07-29T00:45:13;100125.41;;;30.81;62.29
49377;BME280;35253;34.688;33.040;2022-07-29T00:47:39;100126.38;;;30.86;63.11
49377;BME280;35253;34.688;33.040;2022-07-29T00:50:06;100119.66;;;30.82;65.29
49377;BME280;35253;34.688;33.040;2022-07-29T00:52:33;100119.06;;;30.80;66.52
49377;BME280;35253;34.688;33.040;2022-07-29T00:54:59;100120.94;;;30.68;65.90
49377;BME280;35253;34.688;33.040;2022-07-29T00:57:25;100117.13;;;30.81;65.97
49377;BME280;35253;34.688;33.040;2022-07-29T00:59:50;100123.41;;;30.88;65.83
49377;BME280;35253;34.688;33.040;2022-07-29T01:02:16;100119.34;;;30.49;67.07
49377;BME280;35253;34.688;33.040;2022-07-29T01:04:42;100115.09;;;30.17;68.05
49377;BME280;35253;34.688;33.040;2022-07-29T01:07:07;100115.56;;;30.43;66.48
49377;BME280;35253;34.688;33.040;2022-07-29T01:09:34;100117.31;;;30.56;65.26
49377;BME280;35253;34.688;33.040;2022-07-29T01:12:01;100113.03;;;30.60;63.70
49377;BME280;35253;34.688;33.040;2022-07-29T01:14:28;100116.50;;;30.67;63.37
49377;BME280;35253;34.688;33.040;2022-07-29T01:16:59;100116.06;;;30.70;63.76
49377;BME280;35253;34.688;33.040;2022-07-29T01:22:35;100111.00;;;30.67;63.43
49377;BME280;35253;34.688;33.040;2022-07-29T01:25:17;100109.78;;;30.63;63.76
49377;BME280;35253;34.688;33.040;2022-07-29T01:30:22;100113.31;;;30.70;64.36
49377;BME280;35253;34.688;33.040;2022-07-29T01:32:54;100121.06;;;30.14;66.27
49377;BME280;35253;34.688;33.040;2022-07-29T01:35:39;100117.66;;;30.00;66.88
49377;BME280;35253;34.688;33.040;2022-07-29T01:38:14;100120.03;;;29.96;65.54
49377;BME280;35253;34.688;33.040;2022-07-29T01:40:45;100120.72;;;29.92;65.82
49377;BME280;35253;34.688;33.040;2022-07-29T01:43:16;100120.06;;;30.08;64.98
49377;BME280;35253;34.688;33.040;2022-07-29T01:45:58;100116.25;;;30.27;64.39
49377;BME280;35253;34.688;33.040;2022-07-29T01:53:50;100115.97;;;30.47;63.29
49377;BME280;35253;34.688;33.040;2022-07-29T01:56:21;100115.56;;;30.43;63.05
49377;BME280;35253;34.688;33.040;2022-07-29T01:58:49;100117.44;;;30.31;63.69
49377;BME280;35253;34.688;33.040;2022-07-29T02:01:17;100109.41;;;30.30;65.03
49377;BME280;35253;34.688;33.040;2022-07-29T02:03:45;100113.53;;;30.39;66.51
49377;BME280;35253;34.688;33.040;2022-07-29T02:06:12;100105.41;;;30.44;66.77
49377;BME280;35253;34.688;33.040;2022-07-29T02:08:40;100107.66;;;30.35;67.66
49377;BME280;35253;34.688;33.040;2022-07-29T02:11:07;100107.13;;;30.27;66.32
49377;BME280;35253;34.688;33.040;2022-07-29T02:13:35;100103.78;;;30.25;66.28
49377;BME280;35253;34.688;33.040;2022-07-29T02:16:05;100110.13;;;30.07;66.91
49377;BME280;35253;34.688;33.040;2022-07-29T02:18:33;100104.56;;;30.14;66.79
49377;BME280;35253;34.688;33.040;2022-07-29T02:21:03;100102.38;;;30.04;67.59
49377;BME280;35253;34.688;33.040;2022-07-29T02:23:30;100100.53;;;29.98;68.30
49377;BME280;35253;34.688;33.040;2022-07-29T02:25:58;100097.88;;;29.91;68.72
49377;BME280;35253;34.688;33.040;2022-07-29T02:28:29;100099.69;;;29.97;68.55
49377;BME280;35253;34.688;33.040;2022-07-29T02:30:58;100100.16;;;29.94;68.79
49377;BME280;35253;34.688;33.040;2022-07-29T02:33:26;100108.41;;;29.94;69.33
49377;BME280;35253;34.688;33.040;2022-07-29T02:35:53;100104.59;;;29.95;69.85
49377;BME280;35253;34.688;33.040;2022-07-29T02:38:21;100103.06;;;29.99;69.69
49377;BME280;35253;34.688;33.040;2022-07-29T02:41:11;100102.31;;;29.92;69.99
49377;BME280;35253;34.688;33.040;2022-07-29T02:43:40;100096.47;;;29.82;70.03
49377;BME280;35253;34.688;33.040;2022-07-29T02:46:13;100096.78;;;29.74;69.43
49377;BME280;35253;34.688;33.040;2022-07-29T02:48:49;100099.53;;;29.74;69.40
49377;BME280;35253;34.688;33.040;2022-07-29T02:51:26;100096.94;;;29.79;68.84
49377;BME280;35253;34.688;33.040;2022-07-29T02:53:56;100094.56;;;29.83;69.18
49377;BME280;35253;34.688;33.040;2022-07-29T02:56:25;100100.00;;;29.89;67.50
49377;BME280;35253;34.688;33.040;2022-07-29T02:58:57;100106.63;;;29.82;67.72
49377;BME280;35253;34.688;33.040;2022-07-29T03:01:25;100101.75;;;29.84;66.18
49377;BME280;35253;34.688;33.040;2022-07-29T03:03:55;100097.53;;;29.81;65.68
49377;BME280;35253;34.688;33.040;2022-07-29T03:06:23;100099.75;;;29.73;64.52
49377;BME280;35253;34.688;33.040;2022-07-29T03:08:51;100105.41;;;29.78;64.60
49377;BME280;35253;34.688;33.040;2022-07-29T03:11:17;100092.19;;;29.86;63.09
49377;BME280;35253;34.688;33.040;2022-07-29T03:13:45;100090.84;;;29.95;62.26
49377;BME280;35253;34.688;33.040;2022-07-29T03:16:12;100093.13;;;29.98;62.10
49377;BME280;35253;34.688;33.040;2022-07-29T03:18:38;100097.88;;;29.91;62.20
49377;BME280;35253;34.688;33.040;2022-07-29T03:21:04;100100.84;;;29.90;61.96
49377;BME280;35253;34.688;33.040;2022-07-29T03:23:30;100097.44;;;30.06;61.74
49377;BME280;35253;34.688;33.040;2022-07-29T03:25:56;100096.03;;;30.04;61.53
49377;BME280;35253;34.688;33.040;2022-07-29T03:28:22;100099.97;;;30.08;62.46
49377;BME280;35253;34.688;33.040;2022-07-29T03:30:49;100105.31;;;30.21;62.73
49377;BME280;35253;34.688;33.040;2022-07-29T03:33:15;100103.44;;;30.33;62.20
49377;BME280;35253;34.688;33.040;2022-07-29T03:35:41;100107.13;;;30.45;61.68
49377;BME280;35253;34.688;33.040;2022-07-29T03:38:07;100101.88;;;30.55;61.90
49377;BME280;35253;34.688;33.040;2022-07-29T03:40:53;100112.69;;;30.68;61.99
49377;BME280;35253;34.688;33.040;2022-07-29T03:43:20;100108.03;;;30.80;62.00
49377;BME280;35253;34.688;33.040;2022-07-29T03:45:50;100101.72;;;30.92;61.60
49377;BME280;35253;34.688;33.040;2022-07-29T03:48:21;100105.00;;;31.00;61.32
49377;BME280;35253;34.688;33.040;2022-07-29T03:50:48;100104.31;;;31.05;60.07
49377;BME280;35253;34.688;33.040;2022-07-29T03:53:15;100104.44;;;31.10;59.19
49377;BME280;35253;34.688;33.040;2022-07-29T03:55:45;100103.44;;;31.16;58.80
49377;BME280;35253;34.688;33.040;2022-07-29T03:58:13;100107.66;;;31.18;58.69
49377;BME280;35253;34.688;33.040;2022-07-29T04:00:40;100109.34;;;31.19;58.76
49377;BME280;35253;34.688;33.040;2022-07-29T04:03:08;100117.31;;;30.98;58.50
49377;BME280;35253;34.688;33.040;2022-07-29T04:05:35;100105.75;;;31.19;58.73
49377;BME280;35253;34.688;33.040;2022-07-29T04:08:00;100111.97;;;31.26;59.96
49377;BME280;35253;34.688;33.040;2022-07-29T04:10:26;100111.59;;;31.34;61.34
49377;BME280;35253;34.688;33.040;2022-07-29T04:12:52;100111.84;;;31.44;62.70
49377;BME280;35253;34.688;33.040;2022-07-29T04:15:18;100109.94;;;31.56;64.14
49377;BME280;35253;34.688;33.040;2022-07-29T04:17:44;100115.09;;;31.64;64.73
49377;BME280;35253;34.688;33.040;2022-07-29T04:20:10;100112.06;;;31.77;63.89
49377;BME280;35253;34.688;33.040;2022-07-29T04:22:39;100117.13;;;31.81;63.01
49377;BME280;35253;34.688;33.040;2022-07-29T04:25:05;100125.25;;;31.99;63.31
49377;BME280;35253;34.688;33.040;2022-07-29T04:27:31;100134.59;;;31.98;63.10
49377;BME280;35253;34.688;33.040;2022-07-29T04:29:56;100135.63;;;32.08;64.19
49377;BME280;35253;34.688;33.040;2022-07-29T04:32:22;100141.06;;;32.15;66.53
49377;BME280;35253;34.688;33.040;2022-07-29T04:34:48;100132.16;;;32.13;68.98
49377;BME280;35253;34.688;33.040;2022-07-29T04:37:14;100146.06;;;32.18;70.42
49377;BME280;35253;34.688;33.040;2022-07-29T04:39:39;100142.81;;;32.21;72.29
49377;BME280;35253;34.688;33.040;2022-07-29T04:42:05;100150.13;;;32.27;79.28
49377;BME280;35253;34.688;33.040;2022-07-29T04:44:31;100154.66;;;32.33;88.69
49377;BME280;35253;34.688;33.040;2022-07-29T04:46:57;100174.56;;;32.35;95.71
49377;BME280;35253;34.688;33.040;2022-07-29T04:49:23;100176.03;;;32.26;100.00
49377;BME280;35253;34.688;33.040;2022-07-29T04:51:48;100176.53;;;32.23;100.00
49377;BME280;35253;34.688;33.040;2022-07-29T04:54:14;100184.94;;;32.05;100.00
49377;BME280;35253;34.688;33.040;2022-07-29T04:56:40;100193.44;;;32.03;100.00
49377;BME280;35253;34.688;33.040;2022-07-29T04:59:07;100180.03;;;32.07;100.00
49377;BME280;35253;34.688;33.040;2022-07-29T05:01:33;100193.94;;;32.12;100.00
49377;BME280;35253;34.688;33.040;2022-07-29T05:03:58;100180.22;;;32.29;100.00
49377;BME280;35253;34.688;33.040;2022-07-29T05:06:24;100183.72;;;32.24;100.00
49377;BME280;35253;34.688;33.040;2022-07-29T05:08:50;100194.94;;;32.34;100.00
49377;BME280;35253;34.688;33.040;2022-07-29T05:11:15;100195.88;;;32.51;100.00
49377;BME280;35253;34.688;33.040;2022-07-29T05:13:41;100198.38;;;32.65;100.00
49377;BME280;35253;34.688;33.040;2022-07-29T05:16:08;100200.09;;;32.82;100.00
49377;BME280;35253;34.688;33.040;2022-07-29T05:18:33;100199.34;;;32.87;100.00
49377;BME280;35253;34.688;33.040;2022-07-29T05:20:59;100200.16;;;32.87;100.00
49377;BME280;35253;34.688;33.040;2022-07-29T05:23:24;100202.88;;;32.99;100.00
49377;BME280;35253;34.688;33.040;2022-07-29T05:25:50;100204.03;;;33.15;100.00
49377;BME280;35253;34.688;33.040;2022-07-29T05:28:17;100207.00;;;33.13;100.00
49377;BME280;35253;34.688;33.040;2022-07-29T05:30:42;100203.94;;;33.26;100.00
49377;BME280;35253;34.688;33.040;2022-07-29T05:33:10;100202.44;;;33.35;100.00
49377;BME280;35253;34.688;33.040;2022-07-29T05:35:36;100204.22;;;33.41;98.32
49377;BME280;35253;34.688;33.040;2022-07-29T05:38:03;100208.78;;;33.52;97.32
49377;BME280;35253;34.688;33.040;2022-07-29T05:40:28;100213.31;;;33.59;95.96
49377;BME280;35253;34.688;33.040;2022-07-29T05:42:54;100210.47;;;33.53;93.40
49377;BME280;35253;34.688;33.040;2022-07-29T05:45:20;100221.81;;;33.69;90.93
49377;BME280;35253;34.688;33.040;2022-07-29T05:47:45;100222.56;;;33.81;91.47
49377;BME280;35253;34.688;33.040;2022-07-29T05:50:12;100222.00;;;33.79;90.46
49377;BME280;35253;34.688;33.040;2022-07-29T05:52:38;100230.19;;;33.74;90.97
49377;BME280;35253;34.688;33.040;2022-07-29T05:55:04;100224.31;;;33.87;90.97
49377;BME280;35253;34.688;33.040;2022-07-29T05:57:30;100231.44;;;33.83;92.32
49377;BME280;35253;34.688;33.040;2022-07-29T05:59:56;100235.41;;;34.09;91.42
49377;BME280;35253;34.688;33.040;2022-07-29T06:02:22;100236.41;;;34.19;92.00
49377;BME280;35253;34.688;33.040;2022-07-29T06:04:48;100232.88;;;34.24;92.91
49377;BME280;35253;34.688;33.040;2022-07-29T06:07:14;100233.72;;;34.24;94.32
49377;BME280;35253;34.688;33.040;2022-07-29T06:09:41;100243.56;;;34.37;93.92
49377;BME280;35253;34.688;33.040;2022-07-29T06:12:08;100240.03;;;34.42;94.20
49377;BME280;35253;34.688;33.040;2022-07-29T06:14:34;100246.25;;;34.54;93.96
49377;BME280;35253;34.688;33.040;2022-07-29T06:17:01;100238.56;;;34.56;95.41
49377;BME280;35253;34.688;33.040;2022-07-29T06:19:26;100249.25;;;34.47;94.94
49377;BME280;35253;34.688;33.040;2022-07-29T06:21:52;100247.69;;;34.34;94.84
49377;BME280;35253;34.688;33.040;2022-07-29T06:24:18;100248.72;;;34.50;93.24
49377;BME280;35253;34.688;33.040;2022-07-29T06:26:44;100247.03;;;34.66;93.07
49377;BME280;35253;34.688;33.040;2022-07-29T06:29:10;100251.00;;;34.75;93.88
49377;BME280;35253;34.688;33.040;2022-07-29T06:31:36;100250.06;;;34.91;92.86
49377;BME280;35253;34.688;33.040;2022-07-29T06:34:02;100253.50;;;34.76;83.23
49377;BME280;35253;34.688;33.040;2022-07-29T06:36:28;100256.66;;;34.85;79.92
49377;BME280;35253;34.688;33.040;2022-07-29T06:38:53;100246.88;;;35.04;77.73
49377;BME280;35253;34.688;33.040;2022-07-29T06:41:19;100259.19;;;35.13;73.29
49377;BME280;35253;34.688;33.040;2022-07-29T06:43:45;100260.13;;;35.24;72.11
49377;BME280;35253;34.688;33.040;2022-07-29T06:46:15;100251.66;;;35.36;69.47
49377;BME280;35253;34.688;33.040;2022-07-29T06:48:43;100260.03;;;35.41;68.27
49377;BME280;35253;34.688;33.040;2022-07-29T06:51:09;100265.94;;;35.49;65.45
49377;BME280;35253;34.688;33.040;2022-07-29T06:53:37;100269.72;;;35.70;63.61
49377;BME280;35253;34.688;33.040;2022-07-29T06:56:04;100269.44;;;35.66;62.80
49377;BME280;35253;34.688;33.040;2022-07-29T06:58:31;100267.50;;;35.67;63.86
49377;BME280;35253;34.688;33.040;2022-07-29T07:00:58;100264.97;;;35.65;65.02
49377;BME280;35253;34.688;33.040;2022-07-29T07:03:26;100254.47;;;35.67;67.21
49377;BME280;35253;34.688;33.040;2022-07-29T07:05:53;100258.44;;;35.50;61.69
49377;BME280;35253;34.688;33.040;2022-07-29T07:08:20;100260.88;;;35.41;58.62
49377;BME280;35253;34.688;33.040;2022-07-29T07:10:46;100259.59;;;35.59;62.24
49377;BME280;35253;34.688;33.040;2022-07-29T07:13:12;100257.38;;;35.56;66.24
49377;BME280;35253;34.688;33.040;2022-07-29T07:15:38;100266.31;;;35.63;64.44
49377;BME280;35253;34.688;33.040;2022-07-29T07:18:05;100262.38;;;35.54;63.17
49377;BME280;35253;34.688;33.040;2022-07-29T07:20:34;100264.72;;;35.67;64.22
49377;BME280;35253;34.688;33.040;2022-07-29T07:23:00;100269.09;;;35.63;66.58
49377;BME280;35253;34.688;33.040;2022-07-29T07:25:26;100261.34;;;35.11;67.41
49377;BME280;35253;34.688;33.040;2022-07-29T07:27:52;100263.94;;;35.45;67.75
49377;BME280;35253;34.688;33.040;2022-07-29T07:30:17;100264.66;;;35.62;68.44
49377;BME280;35253;34.688;33.040;2022-07-29T07:32:43;100271.28;;;35.61;68.95
49377;BME280;35253;34.688;33.040;2022-07-29T07:35:09;100267.63;;;35.55;68.52
49377;BME280;35253;34.688;33.040;2022-07-29T07:37:36;100264.00;;;35.50;67.38
49377;BME280;35253;34.688;33.040;2022-07-29T07:40:02;100265.59;;;35.41;67.14
49377;BME280;35253;34.688;33.040;2022-07-29T07:42:28;100273.47;;;35.59;68.21
49377;BME280;35253;34.688;33.040;2022-07-29T07:44:54;100269.56;;;35.55;74.36
49377;BME280;35253;34.688;33.040;2022-07-29T07:47:20;100284.50;;;35.49;81.03
49377;BME280;35253;34.688;33.040;2022-07-29T07:49:46;100282.91;;;35.58;84.54
49377;BME280;35253;34.688;33.040;2022-07-29T07:52:13;100281.97;;;35.74;87.09
49377;BME280;35253;34.688;33.040;2022-07-29T07:54:39;100278.50;;;35.62;87.59
49377;BME280;35253;34.688;33.040;2022-07-29T07:57:05;100286.19;;;35.50;89.25
49377;BME280;35253;34.688;33.040;2022-07-29T07:59:30;100274.44;;;35.69;87.76
49377;BME280;35253;34.688;33.040;2022-07-29T08:01:56;100275.69;;;35.57;89.29
49377;BME280;35253;34.688;33.040;2022-07-29T08:04:22;100268.84;;;35.38;89.36
49377;BME280;35253;34.688;33.040;2022-07-29T08:06:48;100270.75;;;34.18;100.00
49377;BME280;35253;34.688;33.040;2022-07-29T08:09:15;100266.88;;;34.84;93.50
49377;BME280;35253;34.688;33.040;2022-07-29T08:11:40;100272.00;;;33.77;100.00
49377;BME280;35253;34.688;33.040;2022-07-29T08:14:06;100270.63;;;33.46;100.00
49377;BME280;35253;34.688;33.040;2022-07-29T08:16:32;100268.34;;;34.10;99.11
49377;BME280;35253;34.688;33.040;2022-07-29T08:18:57;100265.22;;;34.62;94.80
49377;BME280;35253;34.688;33.040;2022-07-29T08:21:24;100259.47;;;34.90;92.61
49377;BME280;35253;34.688;33.040;2022-07-29T08:23:50;100269.31;;;35.03;94.69
49377;BME280;35253;34.688;33.040;2022-07-29T08:26:20;100263.81;;;35.08;96.49
49377;BME280;35253;34.688;33.040;2022-07-29T08:28:47;100264.88;;;35.28;94.95
49377;BME280;35253;34.688;33.040;2022-07-29T08:31:16;100264.94;;;35.34;94.69
49377;BME280;35253;34.688;33.040;2022-07-29T08:33:42;100263.59;;;35.36;94.02
49377;BME280;35253;34.688;33.040;2022-07-29T08:36:08;100258.19;;;34.76;100.00
49377;BME280;35253;34.688;33.040;2022-07-29T08:38:34;100250.72;;;34.76;100.00
49377;BME280;35253;34.688;33.040;2022-07-29T08:41:00;100255.75;;;35.06;100.00
49377;BME280;35253;34.688;33.040;2022-07-29T08:43:28;100259.63;;;35.27;100.00
49377;BME280;35253;34.688;33.040;2022-07-29T08:45:54;100264.50;;;35.47;100.00
49377;BME280;35253;34.688;33.040;2022-07-29T08:48:22;100250.25;;;34.84;83.78
49377;BME280;35253;34.688;33.040;2022-07-29T08:50:55;100253.25;;;35.26;78.36
49377;BME280;35253;34.688;33.040;2022-07-29T08:53:21;100253.09;;;34.46;80.44
49377;BME280;35253;34.688;33.040;2022-07-29T08:55:49;100251.84;;;35.02;87.04
49377;BME280;35253;34.688;33.040;2022-07-29T08:58:16;100253.00;;;35.33;82.09
49377;BME280;35253;34.688;33.040;2022-07-29T09:00:45;100250.50;;;35.05;91.33
49377;BME280;35253;34.688;33.040;2022-07-29T09:03:15;100238.94;;;35.13;90.61
49377;BME280;35253;34.688;33.040;2022-07-29T09:05:43;100234.41;;;35.28;70.80
49377;BME280;35253;34.688;33.040;2022-07-29T09:08:10;100244.44;;;35.08;63.98
49377;BME280;35253;34.688;33.040;2022-07-29T09:10:37;100239.88;;;35.18;56.15
49377;BME280;35253;34.688;33.040;2022-07-29T09:13:03;100241.31;;;35.26;64.07
49377;BME280;35253;34.688;33.040;2022-07-29T09:15:28;100241.81;;;34.96;55.14
49377;BME280;35253;34.688;33.040;2022-07-29T09:17:54;100233.94;;;35.42;59.69
49377;BME280;35253;34.688;33.040;2022-07-29T09:20:22;100237.31;;;35.44;58.44
49377;BME280;35253;34.688;33.040;2022-07-29T09:22:49;100237.03;;;35.77;57.02
49377;BME280;35253;34.688;33.040;2022-07-29T09:25:32;100245.78;;;35.96;60.41
49377;BME280;35253;34.688;33.040;2022-07-29T09:28:06;100242.53;;;35.72;59.75
49377;BME280;35253;34.688;33.040;2022-07-29T09:30:32;100229.41;;;35.99;56.57
49377;BME280;35253;34.688;33.040;2022-07-29T09:33:00;100230.91;;;36.64;62.44
49377;BME280;35253;34.688;33.040;2022-07-29T09:35:27;100229.00;;;36.80;69.66
49377;BME280;35253;34.688;33.040;2022-07-29T09:37:53;100234.88;;;36.93;71.96
49377;BME280;35253;34.688;33.040;2022-07-29T09:40:27;100233.75;;;36.99;75.78
49377;BME280;35253;34.688;33.040;2022-07-29T09:42:54;100230.25;;;36.00;77.18
49377;BME280;35253;34.688;33.040;2022-07-29T09:45:32;100235.38;;;36.70;70.86
49377;BME280;35253;34.688;33.040;2022-07-29T09:48:00;100237.03;;;36.14;66.12
49377;BME280;35253;34.688;33.040;2022-07-29T09:50:39;100235.31;;;36.60;63.17
49377;BME280;35253;34.688;33.040;2022-07-29T09:53:05;100228.44;;;36.83;72.86
49377;BME280;35253;34.688;33.040;2022-07-29T09:55:31;100229.72;;;35.98;100.00
49377;BME280;35253;34.688;33.040;2022-07-29T09:58:20;100226.50;;;34.45;100.00
49377;BME280;35253;34.688;33.040;2022-07-29T10:00:47;100221.75;;;34.40;100.00
49377;BME280;35253;34.688;33.040;2022-07-29T10:03:14;100231.03;;;34.29;100.00
49377;BME280;35253;34.688;33.040;2022-07-29T10:05:41;100227.66;;;34.27;100.00
49377;BME280;35253;34.688;33.040;2022-07-29T10:08:08;100224.34;;;34.69;100.00
49377;BME280;35253;34.688;33.040;2022-07-29T10:10:38;100223.13;;;35.72;100.00
49377;BME280;35253;34.688;33.040;2022-07-29T10:13:06;100227.41;;;36.32;100.00
49377;BME280;35253;34.688;33.040;2022-07-29T10:15:35;100223.69;;;36.63;100.00
49377;BME280;35253;34.688;33.040;2022-07-29T10:18:07;100216.00;;;36.90;100.00
49377;BME280;35253;34.688;33.040;2022-07-29T10:20:33;100208.75;;;36.99;100.00
49377;BME280;35253;34.688;33.040;2022-07-29T10:22:59;100214.09;;;37.16;97.59
49377;BME280;35253;34.688;33.040;2022-07-29T10:25:27;100211.06;;;37.53;94.44
49377;BME280;35253;34.688;33.040;2022-07-29T10:27:53;100204.34;;;37.79;92.34
49377;BME280;35253;34.688;33.040;2022-07-29T10:30:21;100208.97;;;36.78;97.77
49377;BME280;35253;34.688;33.040;2022-07-29T10:38:43;100188.59;;;36.42;100.00
49377;BME280;35253;34.688;33.040;2022-07-29T10:44:08;100184.16;;;36.56;96.35
49377;BME280;35253;34.688;33.040;2022-07-29T10:46:39;100181.19;;;36.78;90.58
49377;BME280;35253;34.688;33.040;2022-07-29T10:49:06;100188.47;;;36.17;97.33
49377;BME280;35253;34.688;33.040;2022-07-29T10:54:17;100186.84;;;36.26;90.54
49377;BME280;35253;34.688;33.040;2022-07-29T10:56:42;100192.16;;;35.85;82.68
49377;BME280;35253;34.688;33.040;2022-07-29T11:01:47;100193.31;;;35.94;78.89
49377;BME280;35253;34.688;33.040;2022-07-29T11:04:13;100187.38;;;36.18;84.98
49377;BME280;35253;34.688;33.040;2022-07-29T11:09:24;100189.91;;;36.29;86.00
49377;BME280;35253;34.688;33.040;2022-07-29T11:11:49;100195.69;;;36.18;87.54
49377;BME280;35253;34.688;33.040;2022-07-29T11:14:15;100183.69;;;35.65;88.84
49377;BME280;35253;34.688;33.040;2022-07-29T11:17:00;100184.91;;;35.79;89.95
49377;BME280;35253;34.688;33.040;2022-07-29T11:19:28;100187.75;;;35.94;87.38
49377;BME280;35253;34.688;33.040;2022-07-29T11:21:53;100188.94;;;36.08;81.30
49377;BME280;35253;34.688;33.040;2022-07-29T11:24:21;100189.84;;;35.72;85.67
49377;BME280;35253;34.688;33.040;2022-07-29T11:29:35;100177.16;;;36.28;72.40
49377;BME280;35253;34.688;33.040;2022-07-29T11:32:12;100179.38;;;35.79;78.38
49377;BME280;35253;34.688;33.040;2022-07-29T11:34:40;100171.63;;;36.33;72.90
49377;BME280;35253;34.688;33.040;2022-07-29T11:39:35;100177.41;;;35.75;72.76
49377;BME280;35253;34.688;33.040;2022-07-29T11:50:26;100172.97;;;35.42;59.75
49377;BME280;35253;34.688;33.040;2022-07-29T11:52:52;100172.28;;;35.24;69.27
49377;BME280;35253;34.688;33.040;2022-07-29T11:55:21;100161.72;;;35.58;64.02
49377;BME280;35253;34.688;33.040;2022-07-29T11:57:57;100166.84;;;35.40;67.83
49377;BME280;35253;34.688;33.040;2022-07-29T12:00:37;100160.59;;;35.17;69.50
49377;BME280;35253;34.688;33.040;2022-07-29T12:03:06;100161.09;;;35.88;69.41
49377;BME280;35253;34.688;33.040;2022-07-29T12:05:37;100160.34;;;35.98;67.24
49377;BME280;35253;34.688;33.040;2022-07-29T12:08:15;100155.78;;;35.82;62.75
49377;BME280;35253;34.688;33.040;2022-07-29T12:10:44;100161.19;;;35.61;57.13
49377;BME280;35253;34.688;33.040;2022-07-29T12:13:11;100157.94;;;35.69;57.22
49377;BME280;35253;34.688;33.040;2022-07-29T12:15:37;100153.84;;;35.82;46.10
49377;BME280;35253;34.688;33.040;2022-07-29T12:18:17;100149.53;;;36.01;43.82
49377;BME280;35253;34.688;33.040;2022-07-29T12:20:44;100145.19;;;36.26;41.73
49377;BME280;35253;34.688;33.040;2022-07-29T12:23:10;100158.94;;;36.00;42.37
49377;BME280;35253;34.688;33.040;2022-07-29T12:25:41;100152.81;;;35.93;42.12
49377;BME280;35253;34.688;33.040;2022-07-29T12:28:10;100159.66;;;36.28;41.00
49377;BME280;35253;34.688;33.040;2022-07-29T12:30:43;100159.50;;;35.97;40.63
49377;BME280;35253;34.688;33.040;2022-07-29T12:33:24;100149.22;;;36.03;41.76
49377;BME280;35253;34.688;33.040;2022-07-29T12:36:10;100147.72;;;36.27;41.16
49377;BME280;35253;34.688;33.040;2022-07-29T12:38:40;100145.81;;;35.81;39.48
49377;BME280;35253;34.688;33.040;2022-07-29T12:41:06;100152.09;;;35.66;40.49
49377;BME280;35253;34.688;33.040;2022-07-29T12:43:35;100140.84;;;35.51;41.48
49377;BME280;35253;34.688;33.040;2022-07-29T12:46:13;100156.56;;;35.72;43.09
49377;BME280;35253;34.688;33.040;2022-07-29T12:48:42;100148.75;;;35.64;39.52
49377;BME280;35253;34.688;33.040;2022-07-29T12:51:09;100143.72;;;36.08;40.56
49377;BME280;35253;34.688;33.040;2022-07-29T12:53:37;100156.47;;;35.62;41.82
49377;BME280;35253;34.688;33.040;2022-07-29T12:56:04;100156.47;;;35.62;43.10
49377;BME280;35253;34.688;33.040;2022-07-29T12:58:33;100139.91;;;35.67;44.44
49377;BME280;35253;34.688;33.040;2022-07-29T13:01:10;100141.22;;;36.06;43.08
49377;BME280;35253;34.688;33.040;2022-07-29T13:03:48;100136.09;;;35.83;42.83
49377;BME280;35253;34.688;33.040;2022-07-29T13:06:32;100138.66;;;35.95;43.41
49377;BME280;35253;34.688;33.040;2022-07-29T13:09:04;100138.78;;;35.68;44.06
49377;BME280;35253;34.688;33.040;2022-07-29T13:11:32;100134.38;;;35.72;45.84
49377;BME280;35253;34.688;33.040;2022-07-29T13:13:58;100132.63;;;35.61;48.52
49377;BME280;35253;34.688;33.040;2022-07-29T13:16:24;100133.28;;;35.04;50.28
49377;BME280;35253;34.688;33.040;2022-07-29T13:19:06;100129.56;;;35.20;54.21
49377;BME280;35253;34.688;33.040;2022-07-29T13:21:32;100131.88;;;35.34;52.86
49377;BME280;35253;34.688;33.040;2022-07-29T13:23:57;100129.38;;;35.69;53.46